createdAt,value
2024-04-13T00:01:19.375Z,4.07
2024-04-13T00:03:46.034Z,3.70
2024-04-13T00:06:12.751Z,4.45
2024-04-13T00:08:39.378Z,4.03
2024-04-13T00:11:05.974Z,4.50
2024-04-13T00:13:32.641Z,4.40
2024-04-13T00:15:59.252Z,4.30
2024-04-13T00:18:25.867Z,4.75
2024-04-13T00:20:52.500Z,4.72
2024-04-13T00:23:19.112Z,4.45
2024-04-13T00:25:45.682Z,4.30
2024-04-13T00:28:12.320Z,4.18
2024-04-13T00:30:38.980Z,4.55
2024-04-13T00:33:05.680Z,4.00
2024-04-13T00:35:32.348Z,4.35
2024-04-13T00:37:58.936Z,4.25
2024-04-13T00:40:25.531Z,4.78
2024-04-13T00:42:52.141Z,4.82
2024-04-13T00:45:18.793Z,4.75
2024-04-13T00:47:45.484Z,4.63
2024-04-13T00:50:12.110Z,4.85
2024-04-13T00:52:38.756Z,4.47
2024-04-13T00:55:05.349Z,4.68
2024-04-13T00:57:32.049Z,4.65
2024-04-13T00:59:58.883Z,4.10
2024-04-13T01:02:25.516Z,5.35
2024-04-13T01:04:52.168Z,4.60
2024-04-13T01:07:18.783Z,4.43
2024-04-13T01:09:45.377Z,4.50
2024-04-13T01:12:12.020Z,4.43
2024-04-13T01:14:38.643Z,4.38
2024-04-13T01:17:05.289Z,4.43
2024-04-13T01:19:31.915Z,4.28
2024-04-13T01:21:58.568Z,4.40
2024-04-13T01:24:25.310Z,4.45
2024-04-13T01:26:51.939Z,4.20
2024-04-13T01:29:18.556Z,4.45
2024-04-13T01:31:45.192Z,3.97
2024-04-13T01:34:11.851Z,5.68
2024-04-13T01:36:38.567Z,4.07
2024-04-13T01:39:05.263Z,4.75
2024-04-13T01:41:31.867Z,4.45
2024-04-13T01:43:58.458Z,4.05
2024-04-13T01:46:25.045Z,5.40
2024-04-13T01:48:51.623Z,4.68
2024-04-13T01:51:18.256Z,4.45
2024-04-13T01:53:44.919Z,5.35
2024-04-13T01:56:11.490Z,4.22
2024-04-13T01:58:38.112Z,5.25
2024-04-13T02:01:04.729Z,4.20
2024-04-13T02:03:31.397Z,4.32
2024-04-13T02:05:58.140Z,4.90
2024-04-13T02:08:24.754Z,4.97
2024-04-13T02:10:51.389Z,4.38
2024-04-13T02:13:18.015Z,3.88
2024-04-13T02:15:44.630Z,3.92
2024-04-13T02:18:11.398Z,4.18
2024-04-13T02:20:38.137Z,4.15
2024-04-13T02:23:04.743Z,3.75
2024-04-13T02:25:31.347Z,4.10
2024-04-13T02:27:57.932Z,3.78
2024-04-13T02:30:24.631Z,3.80
2024-04-13T02:32:51.369Z,3.35
2024-04-13T02:35:18.048Z,4.40
2024-04-13T02:37:44.718Z,4.55
2024-04-13T02:40:11.303Z,4.35
2024-04-13T02:42:38.058Z,3.45
2024-04-13T02:45:04.866Z,3.63
2024-04-13T02:47:31.556Z,3.63
2024-04-13T02:49:58.162Z,3.58
2024-04-13T02:52:24.755Z,3.63
2024-04-13T02:54:51.366Z,3.88
2024-04-13T02:57:18.002Z,3.10
2024-04-13T02:59:44.596Z,3.47
2024-04-13T03:02:12.995Z,3.47
2024-04-13T03:04:39.690Z,3.30
2024-04-13T03:07:06.376Z,3.30
2024-04-13T03:09:32.981Z,3.45
2024-04-13T03:11:59.629Z,2.95
2024-04-13T03:14:26.292Z,3.63
2024-04-13T03:16:52.897Z,4.18
2024-04-13T03:19:19.530Z,3.72
2024-04-13T03:21:46.184Z,2.65
2024-04-13T03:24:12.818Z,4.38
2024-04-13T03:26:39.468Z,2.65
2024-04-13T03:29:06.062Z,2.95
2024-04-13T03:31:32.641Z,2.75
2024-04-13T03:33:59.304Z,3.97
2024-04-13T03:36:25.983Z,2.78
2024-04-13T03:38:52.598Z,2.70
2024-04-13T03:41:19.284Z,3.00
2024-04-13T03:43:45.858Z,2.65
2024-04-13T03:46:12.459Z,2.75
2024-04-13T03:48:39.239Z,3.88
2024-04-13T03:51:06.155Z,2.95
2024-04-13T03:53:32.772Z,3.88
2024-04-13T03:55:59.374Z,3.53
2024-04-13T03:58:25.965Z,2.95
2024-04-13T04:00:52.724Z,2.97
2024-04-13T04:03:19.498Z,2.88
2024-04-13T04:05:46.112Z,2.72
2024-04-13T04:08:12.788Z,2.50
2024-04-13T04:10:39.432Z,3.03
2024-04-13T04:13:05.986Z,3.35
2024-04-13T04:15:32.702Z,2.42
2024-04-13T04:18:00.521Z,3.05
2024-04-13T04:20:27.227Z,3.17
2024-04-13T04:22:53.840Z,3.63
2024-04-13T04:25:20.474Z,2.67
2024-04-13T04:27:47.080Z,3.00
2024-04-13T04:30:13.748Z,2.53
2024-04-13T04:32:40.498Z,2.90
2024-04-13T04:35:07.111Z,2.97
2024-04-13T04:37:33.702Z,3.08
2024-04-13T04:40:00.352Z,2.75
2024-04-13T04:42:27.006Z,2.92
2024-04-13T04:44:53.603Z,2.90
2024-04-13T04:47:20.268Z,3.88
2024-04-13T04:49:46.853Z,3.88
2024-04-13T04:52:13.474Z,3.05
2024-04-13T04:54:40.098Z,3.97
2024-04-13T04:57:06.795Z,3.50
2024-04-13T04:59:33.498Z,3.15
2024-04-13T05:02:00.404Z,3.03
2024-04-13T05:04:27.192Z,3.35
2024-04-13T05:06:53.843Z,3.13
2024-04-13T05:09:20.472Z,3.20
2024-04-13T05:11:47.120Z,3.03
2024-04-13T05:14:14.833Z,3.42
2024-04-13T05:16:41.561Z,2.60
2024-04-13T05:19:08.321Z,2.95
2024-04-13T05:21:35.000Z,2.53
2024-04-13T05:24:01.674Z,3.28
2024-04-13T05:26:28.263Z,2.83
2024-04-13T05:28:54.879Z,3.15
2024-04-13T05:31:21.470Z,3.00
2024-04-13T05:33:48.157Z,2.72
2024-04-13T05:36:14.861Z,2.92
2024-04-13T05:38:41.486Z,2.88
2024-04-13T05:41:08.065Z,3.28
2024-04-13T05:43:34.682Z,3.22
2024-04-13T05:46:01.302Z,3.22
2024-04-13T05:48:27.945Z,2.50
2024-04-13T05:50:58.506Z,2.88
2024-04-13T05:53:26.119Z,2.60
2024-04-13T05:55:52.706Z,4.45
2024-04-13T05:58:19.330Z,2.80
2024-04-13T06:00:45.978Z,3.00
2024-04-13T06:03:12.778Z,2.92
2024-04-13T06:05:42.238Z,2.72
2024-04-13T06:08:09.143Z,3.03
2024-04-13T06:10:35.717Z,3.03
2024-04-13T06:13:02.359Z,3.05
2024-04-13T06:15:29.029Z,2.38
2024-04-13T06:17:55.688Z,3.10
2024-04-13T06:20:22.292Z,2.42
2024-04-13T06:22:48.906Z,2.50
2024-04-13T06:25:15.500Z,3.45
2024-04-13T06:27:42.154Z,2.67
2024-04-13T06:30:08.909Z,2.83
2024-04-13T06:32:35.548Z,3.35
2024-04-13T06:35:02.179Z,2.22
2024-04-13T06:37:28.759Z,2.33
2024-04-13T06:39:55.342Z,2.58
2024-04-13T06:42:22.005Z,3.00
2024-04-13T06:44:48.617Z,2.78
2024-04-13T06:47:15.219Z,2.42
2024-04-13T06:49:41.878Z,2.55
2024-04-13T06:52:08.454Z,2.97
2024-04-13T06:54:35.064Z,2.92
2024-04-13T06:57:01.641Z,3.05
2024-04-13T06:59:28.268Z,2.63
2024-04-13T07:01:54.821Z,2.60
2024-04-13T07:04:21.569Z,2.90
2024-04-13T07:06:48.278Z,3.03
2024-04-13T07:09:14.902Z,2.65
2024-04-13T07:11:41.571Z,2.65
2024-04-13T07:14:08.189Z,2.90
2024-04-13T07:16:34.856Z,2.40
2024-04-13T07:19:01.562Z,3.85
2024-04-13T07:21:28.206Z,2.70
2024-04-13T07:23:54.801Z,2.08
2024-04-13T07:26:21.420Z,2.80
2024-04-13T07:28:47.996Z,2.85
2024-04-13T07:31:14.618Z,2.65
2024-04-13T07:33:41.350Z,2.25
2024-04-13T07:36:08.011Z,2.40
2024-04-13T07:38:34.637Z,2.55
2024-04-13T07:41:01.238Z,2.88
2024-04-13T07:43:27.820Z,2.35
2024-04-13T07:45:54.465Z,2.13
2024-04-13T07:48:21.260Z,3.45
2024-04-13T07:50:47.880Z,3.25
2024-04-13T07:53:14.528Z,2.58
2024-04-13T07:55:41.129Z,3.30
2024-04-13T07:58:07.743Z,2.63
2024-04-13T08:00:34.437Z,2.45
2024-04-13T08:03:01.203Z,2.55
2024-04-13T08:05:27.886Z,2.53
2024-04-13T08:07:54.471Z,2.83
2024-04-13T08:10:21.256Z,2.28
2024-04-13T08:12:48.008Z,2.88
2024-04-13T08:15:14.700Z,3.20
2024-04-13T08:17:41.393Z,2.60
2024-04-13T08:20:08.086Z,2.45
2024-04-13T08:22:34.670Z,2.30
2024-04-13T08:25:01.297Z,2.90
2024-04-13T08:27:29.731Z,2.47
2024-04-13T08:29:56.844Z,3.60
2024-04-13T08:32:23.461Z,2.70
2024-04-13T08:34:50.021Z,2.55
2024-04-13T08:37:16.634Z,2.50
2024-04-13T08:39:43.283Z,2.75
2024-04-13T08:42:09.951Z,1.92
2024-04-13T08:44:36.572Z,2.25
2024-04-13T08:47:03.222Z,3.05
2024-04-13T08:49:29.904Z,3.22
2024-04-13T08:51:56.601Z,2.47
2024-04-13T08:54:23.172Z,2.13
2024-04-13T08:56:49.843Z,2.58
2024-04-13T08:59:16.495Z,2.03
2024-04-13T09:01:48.969Z,2.40
2024-04-13T09:04:15.716Z,2.33
2024-04-13T09:06:42.351Z,2.50
2024-04-13T09:09:08.920Z,2.30
2024-04-13T09:11:35.551Z,2.63
2024-04-13T09:14:02.167Z,1.80
2024-04-13T09:16:28.787Z,2.92
2024-04-13T09:18:55.419Z,2.65
2024-04-13T09:21:22.091Z,2.20
2024-04-13T09:23:48.790Z,2.65
2024-04-13T09:26:15.431Z,2.53
2024-04-13T09:28:42.062Z,2.53
2024-04-13T09:31:08.654Z,2.03
2024-04-13T09:33:35.340Z,3.80
2024-04-13T09:36:01.976Z,2.13
2024-04-13T09:38:28.573Z,2.33
2024-04-13T09:40:55.150Z,2.50
2024-04-13T09:43:21.791Z,2.05
2024-04-13T09:45:48.457Z,2.78
2024-04-13T09:48:15.224Z,2.65
2024-04-13T09:50:41.929Z,1.85
2024-04-13T09:53:08.504Z,1.73
2024-04-13T09:55:35.135Z,2.85
2024-04-13T09:58:01.736Z,2.90
2024-04-13T10:00:28.401Z,2.92
2024-04-13T10:02:55.129Z,3.00
2024-04-13T10:05:21.802Z,3.05
2024-04-13T10:07:48.368Z,2.78
2024-04-13T10:10:15.354Z,2.20
2024-04-13T10:12:42.164Z,2.40
2024-04-13T10:15:08.858Z,2.22
2024-04-13T10:17:35.541Z,2.97
2024-04-13T10:20:02.179Z,2.30
2024-04-13T10:22:36.200Z,2.72
2024-04-13T10:25:05.123Z,2.35
2024-04-13T10:27:31.807Z,2.30
2024-04-13T10:29:58.418Z,2.15
2024-04-13T10:32:25.023Z,2.33
2024-04-13T10:34:51.640Z,2.33
2024-04-13T10:37:18.538Z,2.75
2024-04-13T10:39:46.048Z,2.17
2024-04-13T10:42:12.747Z,2.00
2024-04-13T10:44:39.466Z,28.92
2024-04-13T10:47:06.080Z,14.55
2024-04-13T10:49:32.698Z,9.55
2024-04-13T10:52:00.476Z,7.28
2024-04-13T10:54:27.160Z,7.30
2024-04-13T10:57:02.736Z,7.45
2024-04-13T10:59:36.023Z,6.07
2024-04-13T11:02:02.611Z,5.78
2024-04-13T11:04:29.284Z,7.05
2024-04-13T11:06:55.928Z,9.23
2024-04-13T11:09:22.545Z,3.28
2024-04-13T11:11:49.169Z,5.38
2024-04-13T11:14:15.781Z,4.55
2024-04-13T11:16:42.366Z,3.55
2024-04-13T11:19:09.292Z,5.75
2024-04-13T11:21:36.122Z,3.28
2024-04-13T11:24:02.758Z,5.07
2024-04-13T11:26:29.373Z,5.03
2024-04-13T11:28:55.935Z,4.57
2024-04-13T11:31:22.584Z,2.40
2024-04-13T11:33:49.334Z,2.55
2024-04-13T11:36:16.054Z,4.68
2024-04-13T11:38:42.736Z,4.63
2024-04-13T11:41:09.318Z,5.32
2024-04-13T11:43:36.009Z,1.85
2024-04-13T11:46:02.782Z,3.55
2024-04-13T11:48:29.625Z,3.72
2024-04-13T11:50:56.371Z,3.63
2024-04-13T11:53:23.020Z,3.03
2024-04-13T11:55:49.667Z,4.65
2024-04-13T11:58:16.263Z,2.55
2024-04-13T12:00:42.883Z,3.28
2024-04-13T12:03:09.665Z,1.95
2024-04-13T12:05:36.253Z,2.90
2024-04-13T12:08:02.865Z,3.10
2024-04-13T12:10:29.530Z,4.00
2024-04-13T12:12:56.092Z,4.32
2024-04-13T12:15:22.703Z,2.35
2024-04-13T12:17:49.483Z,3.65
2024-04-13T12:20:16.155Z,3.63
2024-04-13T12:22:42.765Z,2.10
2024-04-13T12:25:09.373Z,2.72
2024-04-13T12:27:36.047Z,2.78
2024-04-13T12:30:02.674Z,41.78
2024-04-13T12:32:29.393Z,27.27
2024-04-13T12:34:55.992Z,13.50
2024-04-13T12:37:22.604Z,15.98
2024-04-13T12:39:49.301Z,23.70
2024-04-13T12:42:16.097Z,16.92
2024-04-13T12:44:42.818Z,12.48
2024-04-13T12:47:11.978Z,8.65
2024-04-13T12:49:38.873Z,12.23
2024-04-13T12:52:05.516Z,10.30
2024-04-13T12:54:32.146Z,9.55
2024-04-13T12:56:58.803Z,16.13
2024-04-13T12:59:25.415Z,13.15
2024-04-13T13:01:52.001Z,12.05
2024-04-13T13:04:18.606Z,9.50
2024-04-13T13:06:45.276Z,12.35
2024-04-13T13:09:11.991Z,7.43
2024-04-13T13:11:39.394Z,8.98
2024-04-13T13:14:06.995Z,4.78
2024-04-13T13:16:33.640Z,6.40
2024-04-13T13:19:00.350Z,9.50
2024-04-13T13:21:27.038Z,6.32
2024-04-13T13:23:53.653Z,7.55
2024-04-13T13:26:20.251Z,7.20
2024-04-13T13:28:50.467Z,7.68
2024-04-13T13:31:18.859Z,7.85
2024-04-13T13:33:45.462Z,4.07
2024-04-13T13:36:12.151Z,4.63
2024-04-13T13:38:38.771Z,9.35
2024-04-13T13:41:05.386Z,5.97
2024-04-13T13:43:31.952Z,3.20
2024-04-13T13:45:58.660Z,4.70
2024-04-13T13:48:25.404Z,6.28
2024-04-13T13:50:52.056Z,5.50
2024-04-13T13:53:18.682Z,4.28
2024-04-13T13:55:45.322Z,5.85
2024-04-13T13:58:11.919Z,5.50
2024-04-13T14:00:38.551Z,3.67
2024-04-13T14:03:05.160Z,5.32
2024-04-13T14:05:31.905Z,6.45
2024-04-13T14:07:58.497Z,5.88
2024-04-13T14:10:28.171Z,4.28
2024-04-13T14:12:55.924Z,3.00
2024-04-13T14:15:22.570Z,2.90
2024-04-13T14:17:49.273Z,3.75
2024-04-13T14:20:15.943Z,5.22
2024-04-13T14:22:42.528Z,2.72
2024-04-13T14:25:09.152Z,3.40
2024-04-13T14:27:35.814Z,2.65
2024-04-13T14:30:02.471Z,4.55
2024-04-13T14:32:29.131Z,4.72
2024-04-13T14:34:55.739Z,6.97
2024-04-13T14:37:22.319Z,5.72
2024-04-13T14:39:49.145Z,2.88
2024-04-13T14:42:15.820Z,3.70
2024-04-13T14:44:42.406Z,3.35
2024-04-13T14:47:10.271Z,2.47
2024-04-13T14:49:38.290Z,5.13
2024-04-13T14:52:04.889Z,2.28
2024-04-13T14:54:31.491Z,4.18
2024-04-13T14:56:58.064Z,4.38
2024-04-13T14:59:24.659Z,2.92
2024-04-13T15:01:51.251Z,3.65
2024-04-13T15:04:17.928Z,3.97
2024-04-13T15:06:44.632Z,3.85
2024-04-13T15:09:11.255Z,4.00
2024-04-13T15:11:37.840Z,4.22
2024-04-13T15:14:04.429Z,2.88
2024-04-13T15:16:31.012Z,3.20
2024-04-13T15:18:57.926Z,41.00
2024-04-13T15:21:24.600Z,18.42
2024-04-13T15:23:51.184Z,14.52
2024-04-13T15:26:17.846Z,15.50
2024-04-13T15:28:44.463Z,17.40
2024-04-13T15:31:11.099Z,8.18
2024-04-13T15:33:37.749Z,13.68
2024-04-13T15:36:04.457Z,9.43
2024-04-13T15:38:31.059Z,9.10
2024-04-13T15:40:57.648Z,5.63
2024-04-13T15:43:24.206Z,8.73
2024-04-13T15:45:50.907Z,7.50
2024-04-13T15:48:17.622Z,8.25
2024-04-13T15:50:44.226Z,6.82
2024-04-13T15:53:10.844Z,6.32
2024-04-13T15:55:37.598Z,7.15
2024-04-13T15:58:04.253Z,4.85
2024-04-13T16:00:30.892Z,5.50
2024-04-13T16:02:57.491Z,4.72
2024-04-13T16:05:24.111Z,4.63
2024-04-13T16:07:50.781Z,5.35
2024-04-13T16:10:17.403Z,4.88
2024-04-13T16:12:44.030Z,5.40
2024-04-13T16:15:10.640Z,5.10
2024-04-13T16:17:37.277Z,3.72
2024-04-13T16:20:03.891Z,4.18
2024-04-13T16:22:30.476Z,2.90
2024-04-13T16:24:57.165Z,2.60
2024-04-13T16:27:23.827Z,4.13
2024-04-13T16:29:50.432Z,6.07
2024-04-13T16:32:17.047Z,4.38
2024-04-13T16:34:43.669Z,4.55
2024-04-13T16:37:10.241Z,3.20
2024-04-13T16:39:36.891Z,1.67
2024-04-13T16:42:03.592Z,3.35
2024-04-13T16:44:30.564Z,3.95
2024-04-13T16:46:57.279Z,2.72
2024-04-13T16:49:23.903Z,4.00
2024-04-13T16:51:50.576Z,2.25
2024-04-13T16:54:17.241Z,3.38
2024-04-13T16:56:43.865Z,2.72
2024-04-13T16:59:10.480Z,2.50
2024-04-13T17:01:37.106Z,3.67
2024-04-13T17:04:03.801Z,2.25
2024-04-13T17:06:30.466Z,3.53
2024-04-13T17:08:57.117Z,1.83
2024-04-13T17:11:23.801Z,3.10
2024-04-13T17:13:50.398Z,3.03
2024-04-13T17:16:16.971Z,4.03
2024-04-13T17:18:43.683Z,3.50
2024-04-13T17:21:10.339Z,3.58
2024-04-13T17:23:36.983Z,4.88
2024-04-13T17:26:03.643Z,2.58
2024-04-13T17:28:30.217Z,2.20
2024-04-13T17:30:56.990Z,3.15
2024-04-13T17:33:23.700Z,2.63
2024-04-13T17:35:50.365Z,3.70
2024-04-13T17:38:17.039Z,2.35
2024-04-13T17:40:43.680Z,1.83
2024-04-13T17:43:10.333Z,2.63
2024-04-13T17:45:37.064Z,2.90
2024-04-13T17:48:03.781Z,3.05
2024-04-13T17:50:31.239Z,2.38
2024-04-13T17:52:57.927Z,1.70
2024-04-13T17:55:25.038Z,2.35
2024-04-13T17:57:51.727Z,3.72
2024-04-13T18:00:18.495Z,2.72
2024-04-13T18:02:45.246Z,2.55
2024-04-13T18:05:11.911Z,2.03
2024-04-13T18:07:38.581Z,2.47
2024-04-13T18:10:05.243Z,2.13
2024-04-13T18:12:31.905Z,2.53
2024-04-13T18:14:58.546Z,2.20
2024-04-13T18:17:25.211Z,1.95
2024-04-13T18:19:51.812Z,1.92
2024-04-13T18:22:18.474Z,2.80
2024-04-13T18:24:45.198Z,2.08
2024-04-13T18:27:11.827Z,2.40
2024-04-13T18:29:38.465Z,3.28
2024-04-13T18:32:05.217Z,1.88
2024-04-13T18:34:31.845Z,2.20
2024-04-13T18:36:58.604Z,2.28
2024-04-13T18:39:25.380Z,2.50
2024-04-13T18:41:52.288Z,2.05
2024-04-13T18:44:18.995Z,3.72
2024-04-13T18:46:45.643Z,2.63
2024-04-13T18:49:12.423Z,1.80
2024-04-13T18:51:39.176Z,2.60
2024-04-13T18:54:05.791Z,2.15
2024-04-13T18:56:32.475Z,2.03
2024-04-13T18:58:59.127Z,2.10
2024-04-13T19:01:25.807Z,3.30
2024-04-13T19:03:52.601Z,2.10
2024-04-13T19:06:19.304Z,3.08
2024-04-13T19:08:46.012Z,1.85
2024-04-13T19:11:12.698Z,3.70
2024-04-13T19:13:39.368Z,2.38
2024-04-13T19:16:10.059Z,3.05
2024-04-13T19:18:37.772Z,2.15
2024-04-13T19:21:04.562Z,2.60
2024-04-13T19:23:31.257Z,2.47
2024-04-13T19:25:57.921Z,3.47
2024-04-13T19:28:24.649Z,2.70
2024-04-13T19:30:51.327Z,2.90
2024-04-13T19:33:17.990Z,2.92
2024-04-13T19:35:44.588Z,4.25
2024-04-13T19:38:11.189Z,2.75
2024-04-13T19:40:37.770Z,2.30
2024-04-13T19:43:04.357Z,2.67
2024-04-13T19:45:31.044Z,2.92
2024-04-13T19:47:57.758Z,2.15
2024-04-13T19:50:24.333Z,2.72
2024-04-13T19:52:50.981Z,2.70
2024-04-13T19:55:17.674Z,2.60
2024-04-13T19:57:44.278Z,2.97
2024-04-13T20:00:10.974Z,2.70
2024-04-13T20:02:37.563Z,2.60
2024-04-13T20:05:04.274Z,2.58
2024-04-13T20:07:31.037Z,3.20
2024-04-13T20:09:57.736Z,2.28
2024-04-13T20:12:24.937Z,2.60
2024-04-13T20:14:51.665Z,3.55
2024-04-13T20:17:18.277Z,3.08
2024-04-13T20:19:44.848Z,3.03
2024-04-13T20:22:11.462Z,2.55
2024-04-13T20:24:38.168Z,3.22
2024-04-13T20:27:04.752Z,3.85
2024-04-13T20:29:31.379Z,2.97
2024-04-13T20:31:57.974Z,2.92
2024-04-13T20:34:24.555Z,2.90
2024-04-13T20:36:51.252Z,2.67
2024-04-13T20:39:18.033Z,3.00
2024-04-13T20:41:44.665Z,2.85
2024-04-13T20:44:11.284Z,3.30
2024-04-13T20:46:37.861Z,2.80
2024-04-13T20:49:04.559Z,2.80
2024-04-13T20:51:31.228Z,3.05
2024-04-13T20:53:57.791Z,2.90
2024-04-13T20:56:24.454Z,3.78
2024-04-13T20:58:51.029Z,2.72
2024-04-13T21:01:17.713Z,3.53
2024-04-13T21:03:44.453Z,2.33
2024-04-13T21:06:11.054Z,3.83
2024-04-13T21:08:37.630Z,2.50
2024-04-13T21:11:04.309Z,2.80
2024-04-13T21:13:30.922Z,3.13
2024-04-13T21:15:57.599Z,2.55
2024-04-13T21:18:24.372Z,3.13
2024-04-13T21:20:51.007Z,2.58
2024-04-13T21:23:17.575Z,2.47
2024-04-13T21:25:44.192Z,3.40
2024-04-13T21:28:10.853Z,3.13
2024-04-13T21:30:37.475Z,2.72
2024-04-13T21:33:04.135Z,3.08
2024-04-13T21:35:30.783Z,3.35
2024-04-13T21:37:57.361Z,3.00
2024-04-13T21:40:24.003Z,3.00
2024-04-13T21:42:50.730Z,2.63
2024-04-13T21:45:17.465Z,3.22
2024-04-13T21:47:44.123Z,3.15
2024-04-13T21:50:10.865Z,3.30
2024-04-13T21:52:37.487Z,2.50
2024-04-13T21:55:04.094Z,2.90
2024-04-13T21:57:30.854Z,3.55
2024-04-13T21:59:57.544Z,3.20
2024-04-13T22:02:24.314Z,3.15
2024-04-13T22:04:50.957Z,2.70
2024-04-13T22:07:17.620Z,4.22
2024-04-13T22:09:44.324Z,2.97
2024-04-13T22:12:10.923Z,2.88
2024-04-13T22:14:37.585Z,3.42
2024-04-13T22:17:04.203Z,3.53
2024-04-13T22:19:31.003Z,3.25
2024-04-13T22:21:57.735Z,2.95
2024-04-13T22:24:24.410Z,3.15
2024-04-13T22:26:51.007Z,3.28
2024-04-13T22:29:17.643Z,2.90
2024-04-13T22:31:44.287Z,3.15
2024-04-13T22:34:10.919Z,2.90
2024-04-13T22:36:37.600Z,2.17
2024-04-13T22:39:04.272Z,3.08
2024-04-13T22:41:30.980Z,3.10
2024-04-13T22:43:57.588Z,3.33
2024-04-13T22:46:24.200Z,3.60
2024-04-13T22:48:51.043Z,3.17
2024-04-13T22:51:17.728Z,3.38
2024-04-13T22:53:44.401Z,3.83
2024-04-13T22:56:11.037Z,3.08
2024-04-13T22:58:37.593Z,3.60
2024-04-13T23:01:04.325Z,2.58
2024-04-13T23:03:31.126Z,3.13
2024-04-13T23:05:57.775Z,3.15
2024-04-13T23:08:24.412Z,2.88
2024-04-13T23:10:51.060Z,3.25
2024-04-13T23:13:17.646Z,2.95
2024-04-13T23:15:44.394Z,3.55
2024-04-13T23:18:11.119Z,3.00
2024-04-13T23:20:37.748Z,3.05
2024-04-13T23:23:04.399Z,3.10
2024-04-13T23:25:31.074Z,3.42
2024-04-13T23:27:57.751Z,3.50
2024-04-13T23:30:24.403Z,3.58
2024-04-13T23:32:51.832Z,3.88
2024-04-13T23:35:18.430Z,3.13
2024-04-13T23:37:45.294Z,3.63
2024-04-13T23:40:12.002Z,3.00
2024-04-13T23:42:38.647Z,3.10
2024-04-13T23:45:05.326Z,3.42
2024-04-13T23:47:31.943Z,3.33
2024-04-13T23:49:58.519Z,3.50
2024-04-13T23:52:25.109Z,3.30
2024-04-13T23:54:51.777Z,3.00
2024-04-13T23:57:18.417Z,2.90
2024-04-13T23:59:45.099Z,2.90
